Time;durP1;ratioP1;P1;durP2;ratioP2;P2;SDS_P1;SDS_P2;PMS_P1;PMS_P2;Temp;Humidity;BMP_temperature;BMP_pressure;BME280_temperature;BME280_humidity;BME280_pressure;Samples;Min_cycle;Max_cycle;Signal;HPM_P1;HPM_P2
2023/02/11 00:00:47;;;;;;;26.52;8.85;;;;;;;5.28;100.00;103562.31;5223440;28;20128;-75
2023/02/11 00:03:18;;;;;;;27.92;9.60;;;;;;;5.23;100.00;103566.97;5223977;28;20029;-75
2023/02/11 00:05:59;;;;;;;23.33;9.52;;;;;;;5.20;100.00;103570.59;5223310;28;20044;-75
2023/02/11 00:08:30;;;;;;;23.05;8.73;;;;;;;5.19;100.00;103557.38;5223394;28;20033;-75
2023/02/11 00:11:00;;;;;;;28.55;9.85;;;;;;;5.18;100.00;103560.97;5226192;28;20813;-75
2023/02/11 00:13:31;;;;;;;18.67;8.95;;;;;;;5.13;100.00;103560.31;5227480;28;20025;-75
2023/02/11 00:16:07;;;;;;;30.52;9.70;;;;;;;5.13;100.00;103557.66;5227600;28;20177;-75
2023/02/11 00:18:37;;;;;;;23.38;8.82;;;;;;;5.09;100.00;103546.25;5226942;28;20031;-75
2023/02/11 00:21:09;;;;;;;22.70;10.45;;;;;;;5.11;100.00;103541.72;5209635;28;20017;-75
2023/02/11 00:23:41;;;;;;;33.95;9.93;;;;;;;5.09;100.00;103540.06;5227216;28;20032;-75
2023/02/11 00:26:15;;;;;;;23.35;9.02;;;;;;;5.11;100.00;103530.22;5227369;28;20493;-75
2023/02/11 00:28:47;;;;;;;24.38;8.85;;;;;;;5.09;100.00;103534.75;5227051;28;20047;-75
2023/02/11 00:31:19;;;;;;;21.67;8.65;;;;;;;5.06;100.00;103541.03;5227177;28;20052;-75
2023/02/11 00:33:50;;;;;;;21.95;8.65;;;;;;;5.06;100.00;103534.88;5226654;28;20078;-75
2023/02/11 00:36:23;;;;;;;21.70;9.00;;;;;;;5.02;100.00;103526.16;5208845;28;20777;-75
2023/02/11 00:38:55;;;;;;;24.23;9.30;;;;;;;5.01;100.00;103518.22;5209308;28;20052;-75
2023/02/11 00:41:26;;;;;;;26.42;8.70;;;;;;;4.98;100.00;103521.03;5209029;28;20025;-75
2023/02/11 00:43:56;;;;;;;25.40;8.85;;;;;;;4.96;100.00;103513.09;5209036;28;20028;-75
2023/02/11 00:46:27;;;;;;;29.05;10.20;;;;;;;4.95;100.00;103508.72;5226058;28;20349;-75
2023/02/11 00:48:57;;;;;;;23.25;8.68;;;;;;;4.94;100.00;103507.84;5209211;28;20067;-75
2023/02/11 00:51:28;;;;;;;23.15;8.32;;;;;;;4.96;100.00;103504.25;5226443;28;20032;-75
2023/02/11 00:53:59;;;;;;;29.20;9.73;;;;;;;4.95;100.00;103508.72;5208848;28;20021;-75
2023/02/11 00:56:29;;;;;;;26.92;9.00;;;;;;;4.94;100.00;103494.56;5226076;28;20120;-75
2023/02/11 00:59:00;;;;;;;19.60;7.55;;;;;;;4.96;100.00;103491.81;5226071;28;20017;-75
2023/02/11 01:01:30;;;;;;;24.45;8.27;;;;;;;4.96;100.00;103497.13;5226443;28;20025;-75
2023/02/11 01:04:00;;;;;;;21.38;7.90;;;;;;;4.93;100.00;103498.16;5226302;28;20107;-75
2023/02/11 01:06:31;;;;;;;28.27;8.05;;;;;;;4.92;100.00;103498.22;5226195;28;20025;-75
2023/02/11 01:09:02;;;;;;;25.98;8.55;;;;;;;4.87;100.00;103490.44;5226495;28;20461;-75
2023/02/11 01:11:32;;;;;;;22.42;7.97;;;;;;;4.84;100.00;103487.03;5226148;28;20472;-75
2023/02/11 01:14:02;;;;;;;30.15;8.20;;;;;;;4.80;100.00;103501.38;5226445;28;20542;-75
2023/02/11 01:16:33;;;;;;;22.25;8.45;;;;;;;4.76;100.00;103502.44;5208282;28;20036;-75
2023/02/11 01:19:03;;;;;;;26.70;8.27;;;;;;;4.75;100.00;103501.56;5226075;28;20513;-75
2023/02/11 01:21:34;;;;;;;21.23;7.07;;;;;;;4.78;100.00;103497.94;5225570;28;20091;-75
2023/02/11 01:24:05;;;;;;;19.58;7.95;;;;;;;4.77;100.00;103499.72;5226000;28;20017;-75
2023/02/11 01:26:35;;;;;;;22.67;7.78;;;;;;;4.81;100.00;103503.09;5225926;28;20039;-75
2023/02/11 01:29:06;;;;;;;26.80;8.15;;;;;;;4.85;100.00;103502.06;5225735;28;20021;-75
2023/02/11 01:31:36;;;;;;;29.27;9.73;;;;;;;4.91;100.00;103504.44;5207978;28;20020;-75
2023/02/11 01:34:07;;;;;;;25.20;7.55;;;;;;;5.01;100.00;103515.56;5225672;28;20021;-75
2023/02/11 01:36:37;;;;;;;22.13;7.63;;;;;;;5.05;100.00;103519.84;5207769;28;20079;-75
2023/02/11 01:39:08;;;;;;;29.27;10.77;;;;;;;5.07;100.00;103520.63;5225907;28;20017;-75
2023/02/11 01:41:38;;;;;;;25.25;8.23;;;;;;;5.12;100.00;103524.84;5207753;28;20064;-75
2023/02/11 01:44:46;;;;;;;28.13;8.68;;;;;;;5.16;100.00;103536.19;5225783;28;20013;-75
2023/02/11 01:47:18;;;;;;;30.95;6.95;;;;;;;5.19;100.00;103525.44;5214389;28;20578;-75
2023/02/11 01:49:51;;;;;;;20.20;7.90;;;;;;;5.22;100.00;103517.34;5225191;28;20622;-75
2023/02/11 01:52:37;;;;;;;27.45;8.27;;;;;;;5.22;100.00;103520.00;5225617;28;20206;-75
2023/02/11 01:58:04;;;;;;;25.98;7.10;;;;;;;5.29;100.00;103521.44;5224739;28;20125;-75
2023/02/11 02:00:37;;;;;;;25.73;7.32;;;;;;;5.32;100.00;103526.66;5225737;28;20367;-75
2023/02/11 02:03:14;;;;;;;22.98;7.57;;;;;;;5.32;100.00;103521.31;5225517;28;20040;-75
2023/02/11 02:06:01;;;;;;;20.75;7.15;;;;;;;5.35;100.00;103531.81;5225832;28;20029;-75
2023/02/11 02:08:31;;;;;;;29.85;7.68;;;;;;;5.35;100.00;103523.84;5225520;28;20087;-75
2023/02/11 02:11:05;;;;;;;21.35;7.00;;;;;;;5.37;100.00;103519.31;5225100;28;20037;-75
2023/02/11 02:13:52;;;;;;;21.65;6.93;;;;;;;5.33;100.00;103506.22;5225205;28;20393;-75
2023/02/11 02:16:29;;;;;;;27.70;7.88;;;;;;;5.32;100.00;103494.72;5225471;28;20025;-75
2023/02/11 02:19:10;;;;;;;22.13;7.25;;;;;;;5.32;100.00;103497.38;5225285;28;20020;-75
2023/02/11 02:22:16;;;;;;;25.45;7.50;;;;;;;5.38;100.00;103485.59;5225203;28;20025;-75
2023/02/11 02:25:38;;;;;;;23.35;7.57;;;;;;;5.40;100.00;103489.03;5196669;28;20508;-75
2023/02/11 02:28:47;;;;;;;24.73;8.05;;;;;;;5.35;100.00;103472.41;5224391;28;20025;-75
2023/02/11 02:31:46;;;;;;;23.58;7.68;;;;;;;5.41;100.00;103488.09;5208726;28;20455;-75
2023/02/11 02:34:40;;;;;;;32.13;8.10;;;;;;;5.44;100.00;103488.81;5207131;28;20074;-75
2023/02/11 02:37:33;;;;;;;24.92;7.72;;;;;;;5.46;100.00;103496.72;5224820;28;20061;-75
2023/02/11 02:40:10;;;;;;;24.38;8.13;;;;;;;5.48;100.00;103491.38;5224840;28;20162;-75
2023/02/11 02:42:42;;;;;;;26.88;8.32;;;;;;;5.50;100.00;103497.47;5225574;28;20443;-75
2023/02/11 02:45:13;;;;;;;24.73;7.28;;;;;;;5.52;100.00;103492.94;5224486;28;20032;-75
2023/02/11 02:47:44;;;;;;;29.67;7.85;;;;;;;5.48;100.00;103489.56;5224596;28;20081;-75
2023/02/11 02:50:21;;;;;;;31.45;7.85;;;;;;;5.48;100.00;103484.25;5225077;28;20028;-75
2023/02/11 02:53:27;;;;;;;17.83;6.50;;;;;;;5.48;100.00;103497.56;5224970;28;20029;-75
2023/02/11 02:56:24;;;;;;;33.25;8.90;;;;;;;5.54;100.00;103494.59;5225079;28;20021;-75
2023/02/11 02:59:31;;;;;;;27.03;7.63;;;;;;;5.56;100.00;103497.19;5224773;28;20395;-75
2023/02/11 03:02:21;;;;;;;;;;;;;;;5.53;100.00;103503.53;5216580;28;20085;-75
2023/02/11 03:05:02;;;;;;;39.72;9.43;;;;;;;5.53;100.00;103503.53;5203144;28;19909;-75
2023/02/11 03:07:42;;;;;;;25.70;8.18;;;;;;;5.57;100.00;103490.91;5220595;28;20078;-75
2023/02/11 03:10:20;;;;;;;26.05;7.78;;;;;;;5.56;100.00;103483.88;5224223;28;20025;-75
2023/02/11 03:12:53;;;;;;;25.85;8.23;;;;;;;5.59;100.00;103476.63;5224730;28;20036;-75
2023/02/11 03:15:26;;;;;;;20.35;7.45;;;;;;;5.57;100.00;103472.28;5206893;28;20393;-75
2023/02/11 03:17:59;;;;;;;26.88;8.15;;;;;;;5.56;100.00;103467.91;5224766;28;20610;-75
2023/02/11 03:20:34;;;;;;;28.35;7.90;;;;;;;5.60;100.00;103482.81;5224590;28;20489;-75
2023/02/11 03:23:23;;;;;;;28.17;8.50;;;;;;;5.59;100.00;103468.63;5224847;28;20025;-75
2023/02/11 03:26:01;;;;;;;24.02;8.05;;;;;;;5.60;100.00;103482.81;5211762;28;20086;-75
2023/02/11 03:29:02;;;;;;;21.20;7.43;;;;;;;5.60;100.00;103482.81;5223951;28;20103;-75
2023/02/11 03:31:46;;;;;;;26.10;7.22;;;;;;;5.62;100.00;103486.25;5224641;28;20394;-75
2023/02/11 03:34:29;;;;;;;25.92;7.13;;;;;;;5.59;100.00;103489.94;5207070;28;20024;-75
2023/02/11 03:37:06;;;;;;;33.58;9.63;;;;;;;5.57;100.00;103499.81;5224144;28;20342;-75
2023/02/11 03:39:46;;;;;;;25.42;8.50;;;;;;;5.58;100.00;103492.69;5224484;28;20562;-75
2023/02/11 03:42:18;;;;;;;27.45;8.00;;;;;;;5.61;100.00;103488.06;5224475;28;20100;-75
2023/02/11 03:44:56;;;;;;;21.27;8.00;;;;;;;5.61;100.00;103476.53;5224367;28;20047;-75
2023/02/11 03:47:30;;;;;;;25.08;7.75;;;;;;;5.61;100.00;103485.38;5223826;28;20438;-75
2023/02/11 03:50:03;;;;;;;27.90;7.95;;;;;;;5.59;100.00;103481.94;5223796;28;20028;-75
2023/02/11 03:52:35;;;;;;;27.63;8.75;;;;;;;5.57;100.00;103480.28;5205976;28;20037;-75
2023/02/11 03:55:12;;;;;;;25.75;8.07;;;;;;;5.56;100.00;103478.56;5224308;28;20075;-75
2023/02/11 03:57:43;;;;;;;31.45;8.20;;;;;;;5.56;100.00;103478.56;5223763;28;20024;-75
2023/02/11 04:00:14;;;;;;;19.27;7.78;;;;;;;5.56;100.00;103474.09;5223815;28;20096;-75
2023/02/11 04:02:45;;;;;;;29.42;7.80;;;;;;;5.56;100.00;103479.41;5219936;28;20017;-75
2023/02/11 04:05:15;;;;;;;24.63;8.30;;;;;;;5.60;100.00;103489.00;5214894;28;20051;-75
2023/02/11 04:07:45;;;;;;;21.60;7.75;;;;;;;5.60;100.00;103488.13;5205742;28;20028;-76
2023/02/11 04:10:16;;;;;;;28.88;8.40;;;;;;;5.59;100.00;103491.75;5223909;28;20016;-75
2023/02/11 04:12:47;;;;;;;24.60;8.40;;;;;;;5.62;100.00;103491.56;5223714;28;20097;-76
2023/02/11 04:15:18;;;;;;;27.92;8.45;;;;;;;5.61;100.00;103488.06;5206059;28;20401;-75
2023/02/11 04:17:48;;;;;;;28.88;8.77;;;;;;;5.61;100.00;103479.19;5224096;28;20021;-75
2023/02/11 04:20:19;;;;;;;29.02;8.75;;;;;;;5.58;100.00;103480.22;5206191;28;20020;-74
2023/02/11 04:22:49;;;;;;;27.65;8.15;;;;;;;5.61;100.00;103484.53;5223960;28;20021;-75
2023/02/11 04:25:20;;;;;;;25.85;8.38;;;;;;;5.62;100.00;103491.56;5224054;28;20025;-75
2023/02/11 04:27:50;;;;;;;26.60;8.88;;;;;;;5.66;100.00;103495.84;5223690;28;20489;-75
2023/02/11 04:30:21;;;;;;;22.98;8.00;;;;;;;5.63;100.00;103504.00;5223876;28;20029;-75
2023/02/11 04:32:53;;;;;;;27.90;8.65;;;;;;;5.62;100.00;103504.91;5224313;28;20056;-76
2023/02/11 04:35:23;;;;;;;24.45;8.13;;;;;;;5.66;100.00;103493.19;5205541;28;20088;-75
2023/02/11 04:37:54;;;;;;;30.35;9.45;;;;;;;5.65;100.00;103497.63;5223760;28;20728;-75
2023/02/11 04:40:24;;;;;;;22.33;8.95;;;;;;;5.64;100.00;103489.72;5223658;28;20389;-75
2023/02/11 04:42:55;;;;;;;32.15;9.23;;;;;;;5.69;100.00;103490.38;5223645;28;20115;-75
2023/02/11 04:45:25;;;;;;;27.65;9.45;;;;;;;5.65;100.00;103484.31;5224009;28;20021;-75
2023/02/11 04:47:56;;;;;;;31.77;9.35;;;;;;;5.67;100.00;103481.59;5223121;28;20108;-75
2023/02/11 04:50:26;;;;;;;24.35;9.15;;;;;;;5.69;100.00;103479.72;5223674;28;20021;-75
2023/02/11 04:52:57;;;;;;;33.35;8.90;;;;;;;5.69;100.00;103474.41;5223634;28;20025;-75
2023/02/11 04:55:27;;;;;;;27.95;9.77;;;;;;;5.72;100.00;103472.47;5223909;28;20082;-75
2023/02/11 04:57:58;;;;;;;29.05;9.85;;;;;;;5.71;100.00;103470.72;5208947;28;20513;-75
2023/02/11 05:00:28;;;;;;;25.42;9.45;;;;;;;5.69;100.00;103472.59;5227101;28;20111;-75
2023/02/11 05:02:59;;;;;;;38.00;9.80;;;;;;;5.68;100.00;103475.34;5221397;28;20028;-75
2023/02/11 05:05:29;;;;;;;23.75;9.68;;;;;;;5.66;100.00;103469.19;5219981;28;20029;-75
2023/02/11 05:08:00;;;;;;;28.63;10.00;;;;;;;5.61;100.00;103469.41;5226953;28;20028;-75
2023/02/11 05:10:30;;;;;;;34.42;10.82;;;;;;;5.62;100.00;103459.63;5227173;28;20112;-75
2023/02/11 05:13:02;;;;;;;29.52;10.60;;;;;;;5.68;100.00;103459.38;5227238;28;20393;-75
2023/02/11 05:15:32;;;;;;;24.27;10.80;;;;;;;5.69;100.00;103461.09;5230229;28;20078;-75
2023/02/11 05:18:03;;;;;;;35.90;12.15;;;;;;;5.70;100.00;103460.16;5229011;28;20025;-75
2023/02/11 05:20:33;;;;;;;25.92;10.90;;;;;;;5.67;100.00;103462.94;5226621;28;20048;-75
2023/02/11 05:23:04;;;;;;;33.33;11.45;;;;;;;5.71;100.00;103456.53;5227127;28;20025;-75
2023/02/11 05:25:34;;;;;;;33.13;11.65;;;;;;;5.73;100.00;103462.69;5226719;28;20548;-75
2023/02/11 05:28:05;;;;;;;30.23;11.95;;;;;;;5.74;100.00;103456.41;5208807;28;20029;-75
2023/02/11 05:30:36;;;;;;;32.28;11.18;;;;;;;5.76;100.00;103456.31;5226522;28;20432;-75
2023/02/11 05:33:06;;;;;;;28.73;11.20;;;;;;;5.77;100.00;103448.25;5226968;28;20104;-75
2023/02/11 05:35:37;;;;;;;34.17;12.15;;;;;;;5.81;100.00;103446.31;5226492;28;20021;-75
2023/02/11 05:38:07;;;;;;;33.58;13.25;;;;;;;5.77;100.00;103450.06;5226167;28;20033;-75
2023/02/11 05:40:38;;;;;;;34.95;12.95;;;;;;;5.77;100.00;103463.38;5226377;28;20108;-75
2023/02/11 05:43:08;;;;;;;44.15;15.02;;;;;;;5.72;100.00;103459.16;5226648;28;20036;-75
2023/02/11 05:45:38;;;;;;;120.97;44.45;;;;;;;5.73;100.00;103462.69;5208799;28;20021;-75
2023/02/11 05:48:09;;;;;;;88.88;29.95;;;;;;;5.72;100.00;103466.25;5225819;28;20398;-75
2023/02/11 05:50:40;;;;;;;42.13;15.10;;;;;;;5.71;100.00;103464.53;5226205;28;20029;-75
2023/02/11 05:53:10;;;;;;;62.80;20.90;;;;;;;5.74;100.00;103469.72;5226215;28;20021;-75
2023/02/11 05:55:41;;;;;;;32.35;12.52;;;;;;;5.74;100.00;103468.88;5226297;28;20032;-75
2023/02/11 05:58:12;;;;;;;34.30;12.75;;;;;;;5.71;100.00;103477.84;5225688;28;20044;-75
2023/02/11 06:00:43;;;;;;;60.80;21.33;;;;;;;5.75;100.00;103475.91;5208127;28;20505;-75
2023/02/11 06:03:13;;;;;;;38.72;15.27;;;;;;;5.76;100.00;103477.63;5225604;28;20032;-75
2023/02/11 06:05:44;;;;;;;42.30;14.80;;;;;;;5.77;100.00;103474.03;5225977;28;20112;-75
2023/02/11 06:08:15;;;;;;;68.00;27.98;;;;;;;5.76;100.00;103467.84;5225655;28;20032;-75
2023/02/11 06:10:45;;;;;;;37.58;15.85;;;;;;;5.76;100.00;103465.19;5225528;28;20061;-75
2023/02/11 06:13:17;;;;;;;34.10;13.75;;;;;;;5.78;100.00;103466.00;5225865;28;20021;-75
2023/02/11 06:16:05;;;;;;;38.72;17.70;;;;;;;5.78;100.00;103467.78;5207933;28;20116;-75
2023/02/11 06:18:36;;;;;;;41.97;19.20;;;;;;;5.80;100.00;103456.13;5207503;28;20374;-75
2023/02/11 06:21:09;;;;;;;57.00;22.83;;;;;;;5.77;100.00;103461.56;5225494;28;20029;-75
2023/02/11 06:23:39;;;;;;;66.63;27.48;;;;;;;5.78;100.00;103462.47;5225307;28;20032;-75
2023/02/11 06:26:16;;;;;;;55.60;22.67;;;;;;;5.77;100.00;103463.38;5225623;28;20040;-75
2023/02/11 06:28:47;;;;;;;43.75;16.90;;;;;;;5.77;100.00;103464.25;5207687;28;20025;-75
2023/02/11 06:31:18;;;;;;;48.22;15.43;;;;;;;5.78;100.00;103466.00;5207633;28;20056;-75
2023/02/11 06:33:49;;;;;;;40.53;16.83;;;;;;;5.76;100.00;103454.53;5225271;28;20114;-75
2023/02/11 06:36:21;;;;;;;41.33;14.98;;;;;;;5.80;100.00;103463.25;5207160;28;20039;-75
2023/02/11 06:38:52;;;;;;;43.28;16.25;;;;;;;5.78;100.00;103458.00;5212334;28;20047;-76
2023/02/11 06:41:22;;;;;;;37.05;15.93;;;;;;;5.81;100.00;103467.63;5224913;28;20029;-75
2023/02/11 06:43:53;;;;;;;44.47;18.88;;;;;;;5.84;100.00;103468.38;5225397;28;20029;-75
2023/02/11 06:46:23;;;;;;;54.05;19.95;;;;;;;5.81;100.00;103471.16;5224725;28;20021;-75
2023/02/11 06:48:54;;;;;;;39.58;17.05;;;;;;;5.80;100.00;103460.59;5224820;28;20070;-75
2023/02/11 06:51:25;;;;;;;58.05;22.40;;;;;;;5.81;100.00;103460.50;5225085;28;20037;-75
2023/02/11 06:53:55;;;;;;;44.13;16.45;;;;;;;5.81;100.00;103454.31;5225429;28;20032;-75
2023/02/11 06:56:26;;;;;;;40.47;17.20;;;;;;;5.78;100.00;103457.13;5206779;28;20053;-75
2023/02/11 06:58:57;;;;;;;40.60;15.43;;;;;;;5.80;100.00;103464.09;5207375;28;20029;-76
2023/02/11 07:01:27;;;;;;;41.25;15.63;;;;;;;5.82;100.00;103469.34;5224415;28;20027;-75
2023/02/11 07:03:58;;;;;;;50.15;16.80;;;;;;;5.83;100.00;103463.13;5224621;28;20090;-75
2023/02/11 07:06:28;;;;;;;40.03;16.42;;;;;;;5.86;100.00;103458.50;5206615;28;20028;-75
2023/02/11 07:08:59;;;;;;;44.50;18.63;;;;;;;5.88;100.00;103461.97;5225001;28;20017;-75
2023/02/11 07:11:30;;;;;;;49.42;17.30;;;;;;;5.86;100.00;103457.63;5212545;28;20490;-76
2023/02/11 07:14:04;;;;;;;46.97;17.63;;;;;;;5.88;100.00;103466.44;5208756;28;20031;-76
2023/02/11 07:16:37;;;;;;;42.28;16.80;;;;;;;5.87;100.00;103473.56;5222929;28;20028;-76
2023/02/11 07:19:07;;;;;;;39.55;17.35;;;;;;;5.87;100.00;103470.91;5222845;28;20370;-75
2023/02/11 07:21:38;;;;;;;41.55;17.88;;;;;;;5.87;100.00;103475.34;5223617;28;20040;-76
2023/02/11 07:24:08;;;;;;;41.20;17.13;;;;;;;5.86;100.00;103477.13;5223262;28;20024;-76
2023/02/11 07:26:39;;;;;;;47.28;19.92;;;;;;;5.89;100.00;103484.13;5222684;28;20462;-76
2023/02/11 07:29:10;;;;;;;50.03;20.13;;;;;;;5.90;100.00;103494.72;5223343;28;20052;-76
2023/02/11 07:31:40;;;;;;;44.08;17.55;;;;;;;5.90;100.00;103492.06;5222920;28;20027;-76
2023/02/11 07:34:11;;;;;;;38.08;16.45;;;;;;;5.92;100.00;103503.56;5223146;28;20083;-76
2023/02/11 07:36:42;;;;;;;57.05;23.13;;;;;;;5.97;100.00;103514.88;5222421;28;20454;-75
2023/02/11 07:39:13;;;;;;;47.08;19.52;;;;;;;6.00;100.00;103516.50;5223049;28;20032;-76
2023/02/11 07:41:46;;;;;;;42.08;18.27;;;;;;;6.04;100.00;103522.56;5205045;28;20105;-77
2023/02/11 07:44:17;;;;;;;44.72;18.60;;;;;;;6.05;100.00;103526.94;5223252;28;20044;-76
2023/02/11 07:46:48;;;;;;;71.93;37.65;;;;;;;6.11;100.00;103526.66;5222824;28;20025;-76
2023/02/11 07:49:18;;;;;;;48.13;19.05;;;;;;;6.14;100.00;103529.19;5222005;28;20025;-76
2023/02/11 07:51:50;;;;;;;59.30;21.58;;;;;;;6.20;100.00;103524.44;5222665;28;20120;-76
2023/02/11 07:54:20;;;;;;;55.03;25.38;;;;;;;6.21;100.00;103523.47;5205070;28;20096;-76
2023/02/11 07:56:51;;;;;;;45.10;19.98;;;;;;;6.21;100.00;103523.47;5222513;28;20123;-76
2023/02/11 07:59:23;;;;;;;60.65;22.67;;;;;;;6.21;100.00;103525.28;5222276;28;20021;-76
2023/02/11 08:01:54;;;;;;;62.72;27.42;;;;;;;6.22;100.00;103527.00;5204569;28;20107;-76
2023/02/11 08:04:24;;;;;;;45.17;18.80;;;;;;;6.24;100.00;103525.16;5209168;28;20017;-76
2023/02/11 08:06:56;;;;;;;65.47;19.15;;;;;;;6.27;100.00;103527.66;5222566;28;20040;-76
2023/02/11 08:09:26;;;;;;;54.72;22.75;;;;;;;6.32;100.00;103530.97;5226532;28;20073;-76
2023/02/11 08:11:57;;;;;;;46.85;19.63;;;;;;;6.36;100.00;103531.69;5231205;28;20107;-75
2023/02/11 08:14:27;;;;;;;58.88;23.55;;;;;;;6.37;100.00;103536.94;5223873;28;20177;-76
2023/02/11 08:16:58;;;;;;;59.50;23.98;;;;;;;6.45;100.00;103536.59;5189178;28;20032;-76
2023/02/11 08:19:28;;;;;;;64.72;25.23;;;;;;;6.51;100.00;103535.44;5223761;28;20477;-76
2023/02/11 08:22:00;;;;;;;51.85;20.48;;;;;;;6.49;100.00;103535.50;5223660;28;20142;-76
2023/02/11 08:24:30;;;;;;;55.65;20.88;;;;;;;6.47;100.00;103542.69;5223561;28;20115;-76
2023/02/11 08:27:01;;;;;;;56.17;20.15;;;;;;;6.49;100.00;103548.84;5222897;28;20681;-76
2023/02/11 08:29:31;;;;;;;58.75;20.45;;;;;;;6.54;100.00;103552.16;5223473;28;20021;-76
2023/02/11 08:32:02;;;;;;;49.22;20.50;;;;;;;6.57;100.00;103554.66;5226173;28;20033;-76
2023/02/11 08:34:33;;;;;;;58.33;21.35;;;;;;;6.62;100.00;103544.63;5227521;28;20040;-76
2023/02/11 08:37:03;;;;;;;53.42;22.80;;;;;;;6.63;100.00;103543.72;5208810;28;20481;-76
2023/02/11 08:39:33;;;;;;;51.40;21.55;;;;;;;6.67;100.00;103550.59;5209661;28;20389;-76
2023/02/11 08:42:04;;;;;;;56.67;21.60;;;;;;;6.67;100.00;103553.28;5227180;28;20073;-76
2023/02/11 08:44:34;;;;;;;63.55;23.00;;;;;;;6.73;100.00;103561.00;5209654;28;20114;-76
2023/02/11 08:47:05;;;;;;;60.13;22.90;;;;;;;6.72;100.00;103559.25;5227169;28;20028;-77
2023/02/11 08:49:36;;;;;;;50.50;19.73;;;;;;;6.75;100.00;103567.09;5209208;28;20408;-76
2023/02/11 08:52:07;;;;;;;60.60;24.17;;;;;;;6.76;100.00;103573.31;5227349;28;20116;-76
2023/02/11 08:54:38;;;;;;;65.50;24.20;;;;;;;6.78;100.00;103570.56;5227316;28;20493;-76
2023/02/11 08:57:08;;;;;;;65.40;27.70;;;;;;;6.81;100.00;103571.28;5227039;28;20116;-76
2023/02/11 08:59:39;;;;;;;63.90;23.17;;;;;;;6.81;100.00;103576.63;5226836;28;20512;-76
2023/02/11 09:02:12;;;;;;;64.07;22.45;;;;;;;6.80;100.00;103572.22;5227069;28;20513;-76
2023/02/11 09:04:42;;;;;;;71.82;28.80;;;;;;;6.83;100.00;103576.53;5227037;28;20033;-76
2023/02/11 09:07:12;;;;;;;76.13;30.48;;;;;;;6.83;100.00;103579.19;5226386;28;20032;-76
2023/02/11 09:09:43;;;;;;;71.50;27.33;;;;;;;6.81;100.00;103581.94;5209172;28;20104;-76
2023/02/11 09:12:13;;;;;;;62.10;25.33;;;;;;;6.82;100.00;103577.47;5226812;28;20060;-76
2023/02/11 09:14:44;;;;;;;58.90;23.23;;;;;;;6.83;100.00;103584.53;5208711;28;20059;-76
2023/02/11 09:17:14;;;;;;;61.85;23.35;;;;;;;6.84;100.00;103578.28;5208276;28;20393;-76
2023/02/11 09:19:45;;;;;;;58.47;23.77;;;;;;;6.92;100.00;103584.09;5226365;28;20028;-76
2023/02/11 09:22:16;;;;;;;65.45;26.17;;;;;;;6.99;100.00;103575.72;5226406;28;20129;-76
2023/02/11 09:24:46;;;;;;;70.88;26.35;;;;;;;7.01;100.00;103580.97;5226765;28;20397;-76
2023/02/11 09:27:17;;;;;;;66.38;26.05;;;;;;;7.08;100.00;103579.75;5225613;28;20533;-76
2023/02/11 09:29:47;;;;;;;68.88;24.98;;;;;;;7.09;100.00;103578.78;5226248;28;20052;-76
2023/02/11 09:32:17;;;;;;;66.55;25.25;;;;;;;7.07;100.00;103585.13;5208867;28;20021;-76
2023/02/11 09:34:48;;;;;;;64.75;24.33;;;;;;;7.06;100.00;103583.41;5226215;28;20508;-76
2023/02/11 09:37:18;;;;;;;60.90;25.70;;;;;;;7.08;100.00;103587.75;5225850;28;20501;-76
2023/02/11 09:39:49;;;;;;;71.80;24.10;;;;;;;7.06;100.00;103584.28;5226168;28;20016;-76
2023/02/11 09:42:41;;;;;;;71.63;24.63;;;;;;;7.09;100.00;103584.13;5226020;28;20033;-76
2023/02/11 09:45:18;;;;;;;72.45;27.15;;;;;;;7.15;100.00;103580.28;5208663;28;20512;-76
2023/02/11 09:48:12;;;;;;;66.53;25.83;;;;;;;7.20;100.00;103586.25;5225690;28;20113;-76
2023/02/11 09:50:49;;;;;;;64.45;25.15;;;;;;;7.22;100.00;103585.22;5226239;28;20025;-76
2023/02/11 09:53:39;;;;;;;71.63;25.40;;;;;;;7.27;100.00;103579.66;5208363;28;20105;-76
2023/02/11 09:56:13;;;;;;;86.65;27.73;;;;;;;7.26;100.00;103576.13;5225723;28;20044;-76
2023/02/11 09:58:44;;;;;;;73.40;26.33;;;;;;;7.34;100.00;103581.09;5225538;28;20539;-76
2023/02/11 10:01:29;;;;;;;66.22;26.52;;;;;;;7.35;100.00;103593.47;5225666;28;20020;-76
2023/02/11 10:04:24;;;;;;;73.20;25.83;;;;;;;7.38;100.00;103593.34;5212313;28;20037;-76
2023/02/11 10:07:05;;;;;;;69.43;25.90;;;;;;;7.41;100.00;103587.81;5225200;28;20033;-76
2023/02/11 10:09:43;;;;;;;80.25;31.77;;;;;;;7.42;100.00;103589.53;5225665;28;20009;-76
2023/02/11 10:12:43;;;;;;;68.35;27.20;;;;;;;7.35;100.00;103590.81;5225617;28;20044;-76
2023/02/11 10:15:13;;;;;;;65.93;25.77;;;;;;;7.38;100.00;103603.13;5225091;28;20131;-76
2023/02/11 10:17:45;;;;;;;75.65;27.15;;;;;;;7.41;100.00;103603.84;5225292;28;20143;-76
2023/02/11 10:20:47;;;;;;;74.38;27.67;;;;;;;7.46;100.00;103607.16;5225774;28;20104;-76
2023/02/11 10:23:23;;;;;;;76.90;27.42;;;;;;;7.51;100.00;103610.44;5225472;28;20039;-76
2023/02/11 10:25:56;;;;;;;78.03;28.00;;;;;;;7.48;100.00;103605.28;5212885;28;20028;-76
2023/02/11 10:28:46;;;;;;;71.63;28.48;;;;;;;7.52;100.00;103613.97;5225190;28;20377;-76
2023/02/11 10:31:36;;;;;;;78.03;28.38;;;;;;;7.50;100.00;103611.41;5225629;28;20094;-76
2023/02/11 10:34:10;;;;;;;75.47;28.02;;;;;;;7.52;100.00;103625.53;5214031;28;20513;-76
2023/02/11 10:36:43;;;;;;;81.80;31.02;;;;;;;7.57;100.00;103614.59;5225160;28;20079;-76
2023/02/11 10:39:17;;;;;;;75.68;31.08;;;;;;;7.66;100.00;103613.28;5225528;28;20021;-76
2023/02/11 10:42:05;;;;;;;75.28;29.52;;;;;;;7.65;100.00;103617.75;5224906;28;20462;-76
2023/02/11 10:44:40;;;;;;;73.30;29.23;;;;;;;7.66;100.00;103618.63;5224983;28;20025;-76
2023/02/11 10:47:17;;;;;;;77.88;30.48;;;;;;;7.63;100.00;103625.00;5224810;28;20031;-76
2023/02/11 10:49:48;;;;;;;78.93;30.13;;;;;;;7.63;100.00;103629.44;5207003;28;20482;-76
2023/02/11 10:52:37;;;;;;;68.07;28.73;;;;;;;7.63;100.00;103621.44;5224910;28;20029;-76
2023/02/11 10:55:30;;;;;;;80.88;30.10;;;;;;;7.62;100.00;103625.06;5222181;28;20043;-76
2023/02/11 10:58:02;;;;;;;121.82;55.15;;;;;;;7.57;100.00;103619.09;5206119;28;20023;-76
2023/02/11 11:00:36;;;;;;;75.72;30.30;;;;;;;7.57;100.00;103621.75;5224297;28;20020;-76
2023/02/11 11:03:20;;;;;;;85.80;32.58;;;;;;;7.56;100.00;103628.06;5216856;28;20025;-76
2023/02/11 11:06:10;;;;;;;84.18;32.88;;;;;;;7.53;100.00;103624.59;5219904;28;20017;-76
2023/02/11 11:08:44;;;;;;;95.90;30.30;;;;;;;7.58;100.00;103626.16;5206575;28;20420;-75
2023/02/11 11:11:18;;;;;;;78.88;29.98;;;;;;;7.58;100.00;103623.47;5223867;28;20118;-76
2023/02/11 11:14:17;;;;;;;81.50;31.50;;;;;;;7.61;100.00;103626.00;5206197;28;20021;-76
2023/02/11 11:17:17;;;;;;;86.65;31.83;;;;;;;7.58;100.00;103624.38;5224344;28;20052;-76
2023/02/11 11:19:47;;;;;;;84.90;31.05;;;;;;;7.61;100.00;103634.03;5213291;28;20070;-76
2023/02/11 11:22:21;;;;;;;94.85;34.50;;;;;;;7.61;100.00;103626.00;5206213;28;20029;-76
2023/02/11 11:24:54;;;;;;;87.80;31.67;;;;;;;7.61;100.00;103632.22;5190600;28;20025;-76
2023/02/11 11:27:25;;;;;;;94.78;41.97;;;;;;;7.65;100.00;103616.91;5206264;28;20024;-76
2023/02/11 11:29:56;;;;;;;84.88;32.45;;;;;;;7.69;100.00;103618.47;5210942;28;20383;-76
2023/02/11 11:32:31;;;;;;;92.60;34.58;;;;;;;7.74;100.00;103617.28;5216071;28;20036;-76
2023/02/11 11:35:08;;;;;;;98.68;36.00;;;;;;;7.77;100.00;103616.25;5222743;28;20162;-76
2023/02/11 11:37:40;;;;;;;85.25;32.92;;;;;;;7.81;100.00;103611.59;5204527;28;20431;-76
2023/02/11 11:40:12;;;;;;;89.93;31.08;;;;;;;7.85;100.00;103607.84;5204588;28;20017;-76
2023/02/11 11:42:43;;;;;;;82.50;31.90;;;;;;;7.88;100.00;103613.00;5222188;28;20024;-76
2023/02/11 11:45:14;;;;;;;87.82;34.03;;;;;;;7.91;100.00;103618.19;5222661;28;20508;-76
2023/02/11 11:48:21;;;;;;;82.43;31.90;;;;;;;7.94;100.00;103620.72;5204179;28;20040;-76